LOWWLXGB

Guest
Details From LOWW - Wien Schwechat
To LXGB - Gibraltar
Flight Number -
Tags Generated
Created
Modified
Stats Distance 1,215 nm / 2,250 km
Max Altitude 0 ft / 0 m
Waypoints 7
Social Downloads 3
Likes 0
Share VATSIM

Download

Looking for another format? Having issues loading an existing format? Contact us
Advertisement - Login to hide

Notes

Generated

Route

LOWW OZE24 VALBO BL008 ABT BRIKE LXGB

ID Type Via Altitude Latitude Longitude Leg Dist Tot Dist Heading (true) Name
O LOWW APT - 0 ft / 0 m 48.11978˚ 16.57818˚ - 0 nm - -
OZE24 FIX - 0 ft / 0 m 46.01706˚ 11.13138˚ 256 nm 256 nm 242° / 238° -
VALBO FIX - 0 ft / 0 m 44.05944˚ 6.89445˚ 214 nm 470 nm 238° / 235° -
BL008 FIX - 0 ft / 0 m 41.65425˚ 2.37648˚ 245 nm 716 nm 236° / 232° -
ABT NDB - 0 ft / 0 m 38.94408˚ -1.99767˚ 258 nm 974 nm 232° / 230° ALBACETE NDB
BRIKE FIX - 0 ft / 0 m 36.50478˚ -5.41645˚ 218 nm 1193 nm 229° / 227° -
O LXGB APT - 0 ft / 0 m 36.15080˚ -5.35977˚ 21 nm 1214 nm 173° / 173° -

Altitude Profile

Advertisement - Login to hide

Weather


0- 5 10 15 20 25 30 35+ Temperature / ° C

Clouds and Precipitation
Forecast for 2018-05-22 18:00 UTC. Updated 5 hours ago

Ground ~20,000 ft ~40,000 ft Winds

LOWW

Details ICAO LOWW (VIE)
Name Wien Schwechat
Region Austria
Timezone Europe/Vienna (UTC+2.0)
Stats Elevation 600 ft / 183 m (AMSL)
Location 48.110068° 16.569637°
Runways 2
Magnetic Variation 4.308° E

METAR

LOWW 222150Z 14005KT CAVOK 16/15 Q1016 NOSIG

Decode

TAF

TAF LOWW 222015Z 2221/2403 14006KT CAVOK TX26/2314Z TN14/2303Z TEMPO 2301/2307 5000 BR BKN005 BECMG 2312/2314 15010KT 9999 FEW050CB SCT300 PROB30 TEMPO 2315/2318 5000 TSRA SCT045CB BKN050 TEMPO 2318/2403 3000 TSRA BKN030 SCT030CB

Decode

Departure Runways

ID Width Length Bearing (true) Bearing (mag) Surface Threshold Offset Overrun Length
11 148 ft / 45 m 11,457 ft / 3,492 m 115.99° 111.68° Asphalt 0 ft / 0 m 0 ft / 0 m
16 148 ft / 45 m 11,811 ft / 3,600 m 164.23° 159.92° Asphalt 0 ft / 0 m 33 ft / 10 m
29 148 ft / 45 m 11,457 ft / 3,492 m 296.03° 291.72° Asphalt 0 ft / 0 m 0 ft / 0 m
34 148 ft / 45 m 11,811 ft / 3,600 m 344.24° 339.93° Asphalt 0 ft / 0 m 0 ft / 0 m

LXGB

Details ICAO LXGB (GIB)
Name Gibraltar
Region Gibralter
Timezone Europe/Gibraltar (UTC+2.0)
Stats Elevation 15 ft / 5 m (AMSL)
Location 36.151209° -5.349664°
Runways 1
Magnetic Variation 1.073° W

METAR

LXGB 222150Z AUTO 06007KT 9000 // NCD 18/16 Q1015

Decode

TAF

Not found

Destination Runways

ID Width Length Bearing (true) Bearing (mag) Surface Threshold Offset Overrun Length
27 151 ft / 46 m 5,992 ft / 1,826 m 267.56° 268.63° Asphalt 367 ft / 112 m 89 ft / 27 m
9 151 ft / 46 m 5,992 ft / 1,826 m 87.54° 88.61° Asphalt 299 ft / 91 m 52 ft / 16 m

Popular Alternatives